Terminal Aerodrome Forecast
Issued by NWS

Home | Current Version | Previous Version | Text Only | Print | Product List | Glossary Off
Versions: 1 2 3 4 5 6 7 8 9 10 11 12 13 14 15 16 17 18 19 20 21 22 23 24 25

000
FTUS43 KBIS 251600 AAA
TAFDIK
TAF AMD
KDIK 251603Z 2516/2612 12015KT 3SM BR OVC006
      TEMPO 2516/2518 1SM BR OVC002
     FM251900 13015KT P6SM OVC011
     FM260000 16011KT 5SM BR VCSH OVC015
     FM260400 20008KT 4SM -SHRA OVC020=

USA.gov is the U.S. government's official web portal to all federal, state and local government web resources and services.